createdAt,value
2023-02-06T00:00:56.925Z,17.63
2023-02-06T00:03:24.720Z,19.80
2023-02-06T00:05:56.793Z,23.37
2023-02-06T00:08:24.881Z,23.20
2023-02-06T00:10:53.135Z,18.70
2023-02-06T00:13:21.137Z,18.20
2023-02-06T00:15:49.177Z,21.60
2023-02-06T00:18:18.351Z,20.47
2023-02-06T00:20:46.080Z,23.03
2023-02-06T00:23:13.784Z,20.73
2023-02-06T00:25:41.529Z,19.23
2023-02-06T00:28:09.377Z,19.67
2023-02-06T00:30:37.238Z,21.00
2023-02-06T00:33:05.182Z,19.80
2023-02-06T00:35:34.617Z,25.50
2023-02-06T00:38:02.533Z,23.77
2023-02-06T00:40:30.504Z,18.77
2023-02-06T00:42:58.225Z,18.17
2023-02-06T00:45:25.903Z,22.03
2023-02-06T00:47:53.578Z,17.57
2023-02-06T00:50:21.345Z,19.70
2023-02-06T00:52:50.744Z,21.80
2023-02-06T00:55:18.733Z,23.57
2023-02-06T00:57:46.478Z,24.80
2023-02-06T01:00:15.294Z,23.63
2023-02-06T01:02:43.053Z,22.47
2023-02-06T01:05:11.261Z,24.20
2023-02-06T01:07:39.872Z,27.83
2023-02-06T01:10:12.160Z,19.83
2023-02-06T01:12:39.870Z,20.80
2023-02-06T01:15:12.325Z,26.97
2023-02-06T01:17:41.220Z,21.50
2023-02-06T01:20:12.109Z,25.97
2023-02-06T01:22:39.907Z,29.10
2023-02-06T01:25:09.626Z,24.03
2023-02-06T01:27:38.585Z,27.33
2023-02-06T01:30:08.273Z,34.33
2023-02-06T01:32:38.049Z,28.97
2023-02-06T01:35:07.125Z,27.70
2023-02-06T01:37:35.641Z,25.00
2023-02-06T01:40:03.713Z,26.33
2023-02-06T01:42:35.288Z,27.63
2023-02-06T01:45:52.935Z,33.50
2023-02-06T01:48:26.382Z,30.33
2023-02-06T01:50:57.244Z,26.60
2023-02-06T01:53:25.797Z,25.20
2023-02-06T01:55:55.214Z,25.00
2023-02-06T01:58:30.592Z,29.63
2023-02-06T02:01:00.091Z,26.10
2023-02-06T02:03:29.496Z,35.97
2023-02-06T02:06:00.964Z,29.97
2023-02-06T02:08:33.753Z,30.00
2023-02-06T02:11:02.677Z,34.93
2023-02-06T02:13:32.132Z,28.83
2023-02-06T02:16:03.182Z,30.40
2023-02-06T02:18:58.025Z,26.77
2023-02-06T02:21:58.308Z,31.30
2023-02-06T02:24:41.692Z,33.10
2023-02-06T02:27:26.081Z,28.87
2023-02-06T02:30:37.618Z,29.13
2023-02-06T02:33:27.255Z,25.77
2023-02-06T02:36:03.445Z,29.37
2023-02-06T02:38:44.680Z,26.73
2023-02-06T02:41:19.995Z,25.43
2023-02-06T02:43:55.226Z,26.00
2023-02-06T02:46:27.395Z,30.00
2023-02-06T02:48:57.950Z,27.20
2023-02-06T02:51:27.472Z,30.30
2023-02-06T02:53:58.031Z,31.37
2023-02-06T02:56:27.494Z,29.07
2023-02-06T02:59:00.280Z,28.03
2023-02-06T03:01:33.876Z,32.77
2023-02-06T03:04:06.492Z,27.33
2023-02-06T03:07:00.446Z,29.67
2023-02-06T03:09:40.466Z,26.57
2023-02-06T03:12:13.720Z,29.43
2023-02-06T03:14:47.057Z,29.60
2023-02-06T03:17:19.227Z,30.10
2023-02-06T03:19:53.288Z,29.00
2023-02-06T03:22:22.724Z,40.00
2023-02-06T03:24:52.312Z,40.73
2023-02-06T03:27:22.663Z,32.70
2023-02-06T03:29:52.951Z,25.67
2023-02-06T03:32:24.206Z,26.87
2023-02-06T03:34:58.895Z,33.50
2023-02-06T03:37:28.747Z,26.07
2023-02-06T03:39:59.114Z,29.73
2023-02-06T03:42:27.387Z,30.43
2023-02-06T03:45:01.589Z,27.60
2023-02-06T03:47:31.070Z,28.37
2023-02-06T03:50:01.588Z,29.30
2023-02-06T03:52:36.934Z,27.03
2023-02-06T03:55:08.336Z,35.93
2023-02-06T03:57:38.854Z,29.13
2023-02-06T04:00:07.648Z,32.57
2023-02-06T04:02:36.248Z,35.27
2023-02-06T04:05:04.168Z,34.13
2023-02-06T04:07:36.065Z,32.40
2023-02-06T04:10:03.888Z,34.67
2023-02-06T04:12:31.633Z,40.90
2023-02-06T04:14:59.366Z,37.30
2023-02-06T04:17:43.051Z,36.13
2023-02-06T04:20:14.511Z,38.90
2023-02-06T04:22:43.834Z,39.13
2023-02-06T04:25:12.222Z,44.23
2023-02-06T04:27:39.988Z,38.27
2023-02-06T04:30:09.034Z,42.20
2023-02-06T04:32:36.776Z,38.17
2023-02-06T04:35:04.858Z,34.50
2023-02-06T04:37:33.731Z,33.47
2023-02-06T04:40:02.741Z,34.10
2023-02-06T04:42:30.424Z,30.87
2023-02-06T04:44:58.178Z,31.33
2023-02-06T04:47:25.998Z,35.27
2023-02-06T04:49:53.713Z,35.27
2023-02-06T04:52:21.625Z,30.87
2023-02-06T04:54:49.359Z,33.60
2023-02-06T04:57:18.392Z,35.30
2023-02-06T04:59:46.095Z,39.23
2023-02-06T05:02:13.900Z,35.73
2023-02-06T05:04:41.738Z,35.37
2023-02-06T05:07:09.450Z,36.50
2023-02-06T05:09:37.208Z,33.17
2023-02-06T05:12:05.253Z,36.50
2023-02-06T05:14:34.568Z,32.50
2023-02-06T05:17:02.302Z,34.00
2023-02-06T05:19:30.146Z,33.27
2023-02-06T05:21:57.861Z,28.17
2023-02-06T05:24:25.900Z,27.23
2023-02-06T05:26:53.881Z,27.60
2023-02-06T05:29:21.568Z,28.37
2023-02-06T05:31:50.710Z,21.67
2023-02-06T05:34:18.553Z,25.23
2023-02-06T05:36:46.387Z,27.73
2023-02-06T05:39:14.239Z,26.90
2023-02-06T05:41:42.040Z,29.83
2023-02-06T05:44:10.950Z,28.00
2023-02-06T05:46:38.974Z,31.93
2023-02-06T05:49:08.116Z,27.20
2023-02-06T05:51:35.864Z,32.80
2023-02-06T05:54:03.874Z,31.73
2023-02-06T05:56:31.942Z,29.00
2023-02-06T05:59:00.179Z,29.70
2023-02-06T06:01:29.182Z,26.53
2023-02-06T06:03:56.935Z,28.77
2023-02-06T06:06:26.142Z,33.73
2023-02-06T06:08:54.003Z,29.30
2023-02-06T06:11:22.264Z,30.03
2023-02-06T06:13:50.175Z,25.93
2023-02-06T06:16:17.960Z,28.23
2023-02-06T06:18:45.680Z,29.27
2023-02-06T06:21:13.448Z,30.67
2023-02-06T06:23:42.539Z,34.47
2023-02-06T06:26:10.341Z,27.10
2023-02-06T06:28:38.766Z,27.17
2023-02-06T06:31:08.081Z,29.47
2023-02-06T06:33:35.964Z,25.73
2023-02-06T06:36:04.033Z,21.87
2023-02-06T06:38:31.825Z,23.20
2023-02-06T06:41:01.065Z,20.77
2023-02-06T06:43:28.942Z,25.70
2023-02-06T06:45:56.688Z,23.07
2023-02-06T06:48:24.578Z,28.50
2023-02-06T06:50:52.341Z,29.63
2023-02-06T06:53:20.222Z,24.37
2023-02-06T06:55:47.930Z,24.27
2023-02-06T06:58:17.170Z,24.23
2023-02-06T07:00:44.913Z,25.40
2023-02-06T07:03:12.724Z,23.10
2023-02-06T07:05:41.324Z,24.63
2023-02-06T07:08:09.149Z,31.57
2023-02-06T07:10:36.909Z,24.10
2023-02-06T07:13:04.869Z,23.13
2023-02-06T07:15:34.142Z,27.00
2023-02-06T07:18:02.013Z,23.00
2023-02-06T07:20:29.783Z,27.17
2023-02-06T07:22:57.514Z,23.00
2023-02-06T07:25:25.310Z,22.37
2023-02-06T07:27:53.051Z,28.63
2023-02-06T07:30:20.898Z,22.03
2023-02-06T07:32:49.998Z,24.23
2023-02-06T07:35:17.844Z,21.50
2023-02-06T07:37:45.703Z,25.63
2023-02-06T07:40:14.130Z,23.67
2023-02-06T07:42:41.859Z,29.30
2023-02-06T07:45:10.446Z,23.30
2023-02-06T07:47:38.145Z,25.70
2023-02-06T07:50:08.010Z,22.07
2023-02-06T07:52:35.712Z,24.43
2023-02-06T07:55:03.464Z,26.80
2023-02-06T07:57:31.665Z,25.10
2023-02-06T07:59:59.532Z,32.73
2023-02-06T08:02:27.222Z,26.80
2023-02-06T08:04:54.920Z,26.37
2023-02-06T08:07:23.961Z,28.80
2023-02-06T08:09:51.716Z,23.57
2023-02-06T08:12:19.435Z,20.40
2023-02-06T08:14:47.226Z,21.17
2023-02-06T08:17:14.960Z,20.20
2023-02-06T08:19:42.675Z,24.73
2023-02-06T08:22:10.388Z,23.77
2023-02-06T08:24:39.449Z,21.53
2023-02-06T08:27:07.734Z,20.10
2023-02-06T08:29:40.293Z,17.60
2023-02-06T08:32:08.006Z,23.13
2023-02-06T08:34:36.342Z,19.10
2023-02-06T08:37:04.027Z,21.03
2023-02-06T08:39:31.914Z,19.20
2023-02-06T08:42:01.774Z,24.10
2023-02-06T08:44:29.565Z,20.73
2023-02-06T08:47:09.144Z,15.20
2023-02-06T08:49:37.327Z,16.90
2023-02-06T08:52:05.688Z,21.10
2023-02-06T08:54:35.580Z,15.97
2023-02-06T08:57:06.691Z,23.90
2023-02-06T08:59:34.821Z,16.07
2023-02-06T09:02:02.675Z,18.87
2023-02-06T09:04:31.470Z,20.10
2023-02-06T09:06:59.212Z,38.63
2023-02-06T09:09:26.901Z,30.50
2023-02-06T09:11:55.408Z,15.10
2023-02-06T09:14:24.622Z,23.00
2023-02-06T09:16:52.388Z,16.93
2023-02-06T09:19:20.168Z,19.10
2023-02-06T09:21:47.914Z,16.20
2023-02-06T09:24:15.633Z,16.10
2023-02-06T09:26:58.621Z,20.90
2023-02-06T09:29:29.711Z,19.10
2023-02-06T09:31:58.014Z,19.03
2023-02-06T09:34:26.887Z,19.00
2023-02-06T09:36:56.652Z,15.07
2023-02-06T09:39:24.727Z,18.40
2023-02-06T09:41:54.259Z,16.90
2023-02-06T09:44:29.033Z,14.20
2023-02-06T09:47:02.694Z,19.07
2023-02-06T09:49:36.878Z,20.50
2023-02-06T09:52:30.766Z,20.13
2023-02-06T09:55:07.438Z,18.30
2023-02-06T09:57:42.528Z,18.87
2023-02-06T10:00:26.332Z,24.17
2023-02-06T10:03:12.350Z,24.93
2023-02-06T10:05:48.161Z,17.70
2023-02-06T10:08:21.859Z,14.57
2023-02-06T10:10:52.845Z,20.33
2023-02-06T10:13:24.609Z,21.00
2023-02-06T10:15:56.909Z,18.87
2023-02-06T10:18:32.975Z,21.33
2023-02-06T10:21:05.972Z,19.67
2023-02-06T10:23:38.436Z,16.00
2023-02-06T10:26:12.441Z,16.90
2023-02-06T10:28:41.447Z,13.10
2023-02-06T10:31:39.213Z,19.50
2023-02-06T10:34:26.942Z,18.10
2023-02-06T10:37:07.901Z,12.70
2023-02-06T10:39:51.607Z,21.87
2023-02-06T10:42:24.560Z,12.40
2023-02-06T10:45:06.598Z,16.10
2023-02-06T10:47:46.308Z,11.90
2023-02-06T10:50:23.892Z,14.90
2023-02-06T10:52:52.113Z,17.17
2023-02-06T10:55:23.611Z,14.03
2023-02-06T10:58:06.309Z,15.53
2023-02-06T11:00:35.019Z,15.87
2023-02-06T11:03:08.169Z,14.37
2023-02-06T11:05:38.262Z,17.87
2023-02-06T11:08:14.268Z,15.10
2023-02-06T11:10:42.031Z,14.67
2023-02-06T11:13:15.136Z,14.17
2023-02-06T11:15:51.679Z,23.60
2023-02-06T11:18:22.660Z,14.40
2023-02-06T11:20:53.735Z,13.50
2023-02-06T11:23:25.131Z,11.87
2023-02-06T11:26:04.235Z,21.63
2023-02-06T11:28:34.244Z,16.03
2023-02-06T11:31:04.094Z,13.27
2023-02-06T11:33:39.749Z,15.50
2023-02-06T11:36:23.660Z,18.90
2023-02-06T11:39:00.180Z,12.53
2023-02-06T11:41:28.968Z,12.60
2023-02-06T11:44:06.247Z,12.87
2023-02-06T11:46:36.103Z,16.67
2023-02-06T11:49:08.944Z,19.20
2023-02-06T11:51:52.539Z,14.00
2023-02-06T11:54:22.610Z,13.60
2023-02-06T11:56:59.137Z,18.90
2023-02-06T11:59:27.457Z,13.43
2023-02-06T12:01:55.467Z,14.50
2023-02-06T12:04:26.792Z,19.20
2023-02-06T12:07:01.932Z,18.77
2023-02-06T12:09:30.231Z,13.23
2023-02-06T12:12:01.893Z,20.43
2023-02-06T12:14:36.834Z,18.57
2023-02-06T12:17:10.651Z,16.33
2023-02-06T12:19:48.136Z,15.67
2023-02-06T12:22:22.662Z,18.93
2023-02-06T12:24:52.383Z,16.60
2023-02-06T12:27:25.938Z,14.90
2023-02-06T12:29:59.557Z,17.77
2023-02-06T12:32:32.742Z,13.60
2023-02-06T12:35:05.219Z,16.17
2023-02-06T12:37:40.104Z,16.60
2023-02-06T12:40:16.854Z,12.90
2023-02-06T12:42:48.791Z,11.47
2023-02-06T12:45:27.402Z,15.90
2023-02-06T12:48:00.772Z,18.43
2023-02-06T12:50:31.519Z,16.33
2023-02-06T12:53:05.541Z,14.60
2023-02-06T12:55:37.937Z,15.30
2023-02-06T12:58:06.275Z,12.60
2023-02-06T13:00:47.196Z,14.10
2023-02-06T13:03:24.614Z,12.93
2023-02-06T13:05:55.455Z,11.33
2023-02-06T13:08:31.438Z,10.20
2023-02-06T13:11:04.751Z,10.10
2023-02-06T13:13:36.496Z,12.53
2023-02-06T13:16:06.316Z,14.10
2023-02-06T13:19:04.690Z,14.07
2023-02-06T13:21:33.921Z,9.80
2023-02-06T13:24:17.749Z,10.50
2023-02-06T13:27:14.433Z,9.43
2023-02-06T13:29:43.972Z,9.80
2023-02-06T13:32:45.194Z,11.40
2023-02-06T13:35:31.197Z,9.13
2023-02-06T13:38:36.519Z,10.07
2023-02-06T13:41:31.932Z,8.23
2023-02-06T13:44:05.222Z,10.47
2023-02-06T13:46:47.582Z,9.00
2023-02-06T13:49:41.871Z,8.57
2023-02-06T13:52:19.394Z,9.37
2023-02-06T13:55:16.650Z,9.10
2023-02-06T13:58:19.209Z,8.90
2023-02-06T14:00:50.348Z,8.07
2023-02-06T14:03:24.507Z,10.10
2023-02-06T14:05:58.872Z,8.30
2023-02-06T14:08:39.846Z,8.13
2023-02-06T14:11:20.453Z,9.00
2023-02-06T14:14:17.536Z,9.00
2023-02-06T14:16:52.647Z,8.80
2023-02-06T14:19:31.889Z,8.77
2023-02-06T14:22:09.459Z,10.80
2023-02-06T14:25:04.553Z,8.57
2023-02-06T14:27:50.516Z,8.43
2023-02-06T14:30:33.991Z,9.67
2023-02-06T14:33:17.420Z,10.67
2023-02-06T14:35:58.395Z,7.50
2023-02-06T14:39:10.638Z,7.67
2023-02-06T14:41:39.598Z,12.20
2023-02-06T14:44:16.097Z,8.90
2023-02-06T14:46:45.712Z,9.00
2023-02-06T14:49:18.689Z,7.57
2023-02-06T14:51:54.645Z,8.20
2023-02-06T14:54:35.912Z,12.23
2023-02-06T14:57:16.554Z,10.37
2023-02-06T14:59:52.017Z,7.93
2023-02-06T15:02:28.124Z,8.13
2023-02-06T15:05:01.729Z,7.67
2023-02-06T15:07:33.009Z,9.53
2023-02-06T15:10:07.724Z,12.70
2023-02-06T15:12:36.992Z,8.30
2023-02-06T15:15:18.794Z,9.50
2023-02-06T15:17:59.146Z,8.30
2023-02-06T15:20:32.294Z,9.77
2023-02-06T15:23:17.847Z,9.90
2023-02-06T15:26:01.603Z,8.60
2023-02-06T15:28:31.557Z,8.40
2023-02-06T15:31:03.710Z,10.73
2023-02-06T15:33:36.063Z,8.47
2023-02-06T15:36:07.828Z,8.60
2023-02-06T15:38:39.956Z,9.20
2023-02-06T15:41:09.379Z,7.63
2023-02-06T15:43:37.469Z,9.10
2023-02-06T15:46:11.297Z,8.30
2023-02-06T15:48:50.361Z,8.70
2023-02-06T15:51:23.864Z,10.50
2023-02-06T15:53:53.421Z,9.60
2023-02-06T15:56:28.792Z,11.23
2023-02-06T16:02:01.170Z,9.10
2023-02-06T16:04:34.464Z,9.90
2023-02-06T16:07:13.180Z,8.87
2023-02-06T16:09:43.458Z,16.73
2023-02-06T16:12:12.378Z,8.23
2023-02-06T16:14:41.994Z,9.03
2023-02-06T16:17:31.528Z,8.60
2023-02-06T16:20:03.162Z,9.07
2023-02-06T16:22:32.622Z,8.80
2023-02-06T16:25:21.699Z,9.30
2023-02-06T16:27:57.535Z,8.80
2023-02-06T16:30:31.710Z,11.37
2023-02-06T16:33:01.940Z,12.10
2023-02-06T16:35:33.424Z,7.97
2023-02-06T16:38:01.336Z,7.77
2023-02-06T16:40:30.066Z,9.53
2023-02-06T16:43:00.020Z,9.10
2023-02-06T16:45:29.089Z,9.37
2023-02-06T16:47:57.944Z,8.70
2023-02-06T16:50:25.774Z,7.80
2023-02-06T16:53:01.856Z,10.30
2023-02-06T16:55:39.684Z,8.90
2023-02-06T16:58:07.570Z,12.10
2023-02-06T17:00:35.686Z,9.37
2023-02-06T17:03:03.529Z,8.87
2023-02-06T17:05:35.545Z,11.70
2023-02-06T17:08:15.526Z,11.63
2023-02-06T17:10:43.562Z,10.13
2023-02-06T17:13:15.398Z,10.73
2023-02-06T17:15:43.976Z,13.30
2023-02-06T17:18:14.167Z,10.90
2023-02-06T17:20:43.776Z,16.37
2023-02-06T17:23:14.232Z,10.57
2023-02-06T17:25:45.431Z,9.73
2023-02-06T17:28:15.777Z,8.77
2023-02-06T17:30:43.711Z,9.77
2023-02-06T17:33:11.815Z,7.30
2023-02-06T17:35:45.572Z,7.37
2023-02-06T17:38:20.582Z,8.70
2023-02-06T17:40:48.573Z,6.93
2023-02-06T17:43:16.588Z,6.33
2023-02-06T17:45:44.413Z,7.63
2023-02-06T17:48:12.287Z,7.23
2023-02-06T17:50:43.722Z,6.90
2023-02-06T17:53:15.351Z,13.37
2023-02-06T17:55:47.244Z,7.33
2023-02-06T17:58:19.282Z,10.00
2023-02-06T18:00:49.207Z,9.13
2023-02-06T18:03:18.247Z,8.70
2023-02-06T18:05:47.140Z,7.87
2023-02-06T18:08:21.049Z,11.10
2023-02-06T18:10:48.990Z,9.43
2023-02-06T18:13:17.077Z,7.80
2023-02-06T18:15:49.961Z,7.43
2023-02-06T18:18:18.064Z,9.80
2023-02-06T18:20:46.081Z,9.53
2023-02-06T18:23:16.217Z,8.53
2023-02-06T18:25:45.501Z,8.37
2023-02-06T18:28:14.740Z,10.33
2023-02-06T18:30:47.297Z,9.57
2023-02-06T18:33:15.187Z,11.93
2023-02-06T18:35:48.767Z,8.77
2023-02-06T18:38:19.182Z,9.30
2023-02-06T18:40:50.988Z,8.13
2023-02-06T18:43:17.816Z,10.20
2023-02-06T18:45:48.168Z,9.87
2023-02-06T18:48:16.122Z,7.50
2023-02-06T18:50:43.934Z,9.33
2023-02-06T18:53:12.380Z,8.03
2023-02-06T18:55:40.426Z,10.50
2023-02-06T18:58:09.934Z,7.67
2023-02-06T19:00:40.750Z,8.00
2023-02-06T19:03:10.397Z,8.20
2023-02-06T19:05:42.046Z,9.57
2023-02-06T19:08:10.218Z,7.40
2023-02-06T19:10:38.484Z,6.97
2023-02-06T19:13:13.381Z,8.10
2023-02-06T19:15:41.383Z,8.00
2023-02-06T19:18:13.163Z,7.43
2023-02-06T19:20:43.996Z,9.13
2023-02-06T19:23:11.841Z,9.80
2023-02-06T19:25:41.743Z,10.07
2023-02-06T19:28:13.750Z,9.40
2023-02-06T19:30:53.153Z,9.10
2023-02-06T19:33:20.856Z,9.60
2023-02-06T19:35:48.894Z,11.03
2023-02-06T19:38:16.618Z,9.00
2023-02-06T19:40:53.141Z,9.93
2023-02-06T19:43:22.462Z,12.20
2023-02-06T19:45:50.533Z,11.97
2023-02-06T19:48:18.398Z,10.30
2023-02-06T19:50:51.241Z,11.00
2023-02-06T19:53:34.272Z,10.27
2023-02-06T19:56:09.320Z,12.50
2023-02-06T19:58:47.179Z,11.70
2023-02-06T20:01:18.090Z,13.20
2023-02-06T20:03:46.630Z,13.23
2023-02-06T20:06:38.063Z,12.20
2023-02-06T20:09:09.732Z,13.23
2023-02-06T20:11:45.300Z,12.83
2023-02-06T20:14:18.250Z,14.83
2023-02-06T20:16:49.852Z,12.83
2023-02-06T20:19:29.004Z,14.63
2023-02-06T20:22:01.586Z,15.60
2023-02-06T20:24:36.046Z,17.47
2023-02-06T20:27:13.640Z,16.83
2023-02-06T20:29:45.953Z,14.77
2023-02-06T20:32:19.815Z,18.63
2023-02-06T20:34:49.336Z,13.23
2023-02-06T20:37:22.097Z,14.27
2023-02-06T20:39:50.501Z,12.70
2023-02-06T20:42:19.394Z,15.20
2023-02-06T20:44:50.228Z,18.03
2023-02-06T20:47:18.174Z,12.37
2023-02-06T20:49:48.567Z,14.30
2023-02-06T20:52:22.238Z,14.50
2023-02-06T20:54:50.205Z,13.93
2023-02-06T20:57:17.968Z,13.70
2023-02-06T20:59:49.853Z,16.20
2023-02-06T21:02:22.527Z,11.77
2023-02-06T21:04:52.288Z,11.97
2023-02-06T21:07:23.557Z,12.80
2023-02-06T21:09:51.759Z,11.13
2023-02-06T21:12:19.497Z,13.67
2023-02-06T21:14:47.521Z,14.40
2023-02-06T21:17:15.389Z,13.13
2023-02-06T21:19:44.499Z,12.27
2023-02-06T21:22:12.295Z,13.87
2023-02-06T21:24:40.250Z,12.60
2023-02-06T21:27:08.194Z,12.63
2023-02-06T21:29:35.949Z,14.10
2023-02-06T21:32:13.606Z,13.77
2023-02-06T21:34:44.460Z,15.27
2023-02-06T21:37:12.429Z,18.57
2023-02-06T21:39:41.065Z,14.70
2023-02-06T21:42:09.345Z,14.10
2023-02-06T21:44:37.873Z,17.63
2023-02-06T21:47:06.216Z,14.50
2023-02-06T21:49:34.049Z,16.20
2023-02-06T21:52:07.412Z,14.50
2023-02-06T21:54:35.127Z,15.10
2023-02-06T21:57:05.006Z,16.43
2023-02-06T21:59:36.260Z,17.20
2023-02-06T22:02:05.924Z,16.33
2023-02-06T22:04:33.873Z,19.23
2023-02-06T22:07:11.652Z,16.23
2023-02-06T22:09:42.011Z,16.87
2023-02-06T22:12:10.097Z,15.83
2023-02-06T22:14:43.822Z,16.20
2023-02-06T22:17:11.856Z,14.83
2023-02-06T22:19:39.854Z,14.23
2023-02-06T22:22:18.349Z,13.87
2023-02-06T22:24:53.026Z,12.70
2023-02-06T22:27:21.049Z,12.70
2023-02-06T22:29:48.978Z,12.50
2023-02-06T22:32:16.827Z,14.80
2023-02-06T22:34:46.676Z,13.20
2023-02-06T22:37:22.188Z,12.40
2023-02-06T22:39:50.089Z,13.87
2023-02-06T22:42:20.372Z,14.70
2023-02-06T22:44:48.693Z,12.90
2023-02-06T22:47:16.655Z,13.97
2023-02-06T22:49:46.986Z,14.10
2023-02-06T22:52:28.835Z,16.27
2023-02-06T22:55:03.011Z,14.90
2023-02-06T22:57:33.338Z,16.13
2023-02-06T23:00:03.203Z,16.27
2023-02-06T23:02:30.916Z,14.93
2023-02-06T23:04:58.745Z,14.93
2023-02-06T23:07:26.723Z,14.60
2023-02-06T23:09:55.715Z,13.33
2023-02-06T23:12:24.968Z,17.97
2023-02-06T23:14:52.786Z,14.07
2023-02-06T23:17:30.965Z,15.47
2023-02-06T23:20:01.769Z,15.83
2023-02-06T23:22:29.659Z,18.93
2023-02-06T23:24:57.851Z,15.27
2023-02-06T23:27:30.266Z,17.50
2023-02-06T23:29:58.124Z,18.67
2023-02-06T23:32:26.101Z,14.90
2023-02-06T23:34:56.848Z,14.70
2023-02-06T23:37:24.564Z,18.77
2023-02-06T23:39:52.452Z,16.90
2023-02-06T23:42:20.570Z,16.40
2023-02-06T23:44:49.972Z,19.03
2023-02-06T23:47:17.795Z,15.13
2023-02-06T23:49:45.681Z,19.10
2023-02-06T23:52:18.641Z,17.03
2023-02-06T23:54:46.435Z,16.17
2023-02-06T23:57:17.407Z,18.00
2023-02-06T23:59:47.725Z,16.47
